Time;durP1;ratioP1;P1;durP2;ratioP2;P2;SDS_P1;SDS_P2;PMS_P1;PMS_P2;Temp;Humidity;BMP_temperature;BMP_pressure;BME280_temperature;BME280_humidity;BME280_pressure;Samples;Min_cycle;Max_cycle;Signal;HPM_P1;HPM_P2
2022/07/01 00:00:56;;;;;;;;;3.75;1.00;;;;;17.49;54.74;101050.59;5034029;28;46672;-58
2022/07/01 00:03:21;;;;;;;;;2.75;1.75;;;;;17.48;54.86;101048.91;5042520;28;45780;-58
2022/07/01 00:05:46;;;;;;;;;4.00;4.00;;;;;17.46;54.89;101051.63;5048332;28;47926;-58
2022/07/01 00:08:12;;;;;;;;;2.00;2.00;;;;;17.45;55.10;101057.81;5033871;28;46310;-58
2022/07/01 00:10:37;;;;;;;;;2.75;2.00;;;;;17.38;55.29;101058.22;5037436;28;45532;-58
2022/07/01 00:13:03;;;;;;;;;3.00;0.50;;;;;17.31;55.48;101049.72;5029816;28;45475;-59
2022/07/01 00:15:29;;;;;;;;;3.00;2.00;;;;;17.26;55.72;101055.28;5036889;28;45493;-59
2022/07/01 00:17:54;;;;;;;;;1.00;1.00;;;;;17.24;55.73;101050.97;5038986;28;45433;-58
2022/07/01 00:20:20;;;;;;;;;2.25;2.25;;;;;17.23;55.73;101054.56;5045275;28;45288;-60
2022/07/01 00:22:46;;;;;;;;;6.50;2.00;;;;;17.24;55.67;101053.63;5014244;28;45246;-59
2022/07/01 00:25:11;;;;;;;;;2.75;1.75;;;;;17.20;55.83;101057.38;5039882;28;46035;-58
2022/07/01 00:27:40;;;;;;;;;4.75;3.00;;;;;17.18;55.90;101059.22;5031676;28;48694;-58
2022/07/01 00:30:07;;;;;;;;;1.75;1.25;;;;;17.15;56.04;101062.88;5035311;28;45480;-59
2022/07/01 00:32:32;;;;;;;;;3.50;3.00;;;;;17.14;56.73;101065.59;5033672;28;45439;-58
2022/07/01 00:34:58;;;;;;;;;1.00;1.00;;;;;17.10;56.06;101066.69;5037638;28;45663;-58
2022/07/01 00:37:23;;;;;;;;;1.75;1.75;;;;;17.07;56.28;101070.34;5048284;28;45737;-59
2022/07/01 00:39:49;;;;;;;;;1.75;1.00;;;;;17.06;56.77;101073.91;5031798;28;45430;-58
2022/07/01 00:42:14;;;;;;;;;2.25;1.50;;;;;17.06;56.37;101071.25;5036982;28;45420;-58
2022/07/01 00:44:39;;;;;;;;;2.00;2.00;;;;;17.04;56.39;101076.63;5017473;28;46892;-60
2022/07/01 00:47:09;;;;;;;;;0.75;0.75;;;;;17.04;56.56;101073.13;5040908;28;45416;-57
2022/07/01 00:49:35;;;;;;;;;3.00;0.75;;;;;17.00;56.85;101071.56;5017937;28;45470;-58
2022/07/01 00:52:00;;;;;;;;;1.00;1.00;;;;;16.97;56.55;101077.00;5038949;28;45534;-59
2022/07/01 00:54:26;;;;;;;;;0.00;0.00;;;;;16.94;57.06;101077.13;5030029;28;45481;-60
2022/07/01 00:56:52;;;;;;;;;2.00;1.00;;;;;16.88;56.56;101075.66;5036644;28;45513;-59
2022/07/01 00:59:17;;;;;;;;;0.75;0.75;;;;;16.87;56.74;101079.22;5032190;28;45394;-59
2022/07/01 01:01:43;;;;;;;;;3.25;0.25;;;;;16.87;56.86;101081.84;5038313;28;45561;-59
2022/07/01 01:04:08;;;;;;;;;0.75;0.75;;;;;16.88;56.44;101084.44;5034367;28;46209;-59
2022/07/01 01:06:34;;;;;;;;;2.00;1.00;;;;;16.89;56.75;101078.22;5032001;28;47045;-58
2022/07/01 01:09:00;;;;;;;;;0.00;0.00;;;;;16.93;56.74;101086.88;5016599;28;45185;-58
2022/07/01 01:11:26;;;;;;;;;0.75;0.75;;;;;16.94;56.98;101082.44;5018220;28;46270;-59
2022/07/01 01:13:51;;;;;;;;;1.75;0.75;;;;;16.95;56.60;101090.28;5005062;28;47373;-58
2022/07/01 01:16:21;;;;;;;;;1.00;0.75;;;;;17.00;56.49;101087.44;5034186;28;45404;-60
2022/07/01 01:18:47;;;;;;;;;0.50;0.00;;;;;16.97;56.48;101093.72;5032892;28;45478;-58
2022/07/01 01:21:13;;;;;;;;;0.75;0.00;;;;;16.96;56.74;101096.44;5019678;28;45516;-59
2022/07/01 01:23:38;;;;;;;;;0.75;0.75;;;;;16.96;56.82;101097.28;5031636;28;45525;-59
2022/07/01 01:26:04;;;;;;;;;2.75;2.00;;;;;16.97;56.94;101100.78;5034392;28;45404;-58
2022/07/01 01:28:29;;;;;;;;;0.25;0.00;;;;;16.97;56.72;101106.94;5034226;28;45222;-57
2022/07/01 01:30:55;;;;;;;;;0.50;0.50;;;;;16.96;56.87;101099.91;5035728;28;45350;-58
2022/07/01 01:33:20;;;;;;;;;0.75;0.75;;;;;16.95;56.58;101107.94;5033616;28;45367;-58
2022/07/01 01:35:46;;;;;;;;;0.00;0.00;;;;;16.94;57.06;101101.78;5039289;28;45394;-60
2022/07/01 01:38:11;;;;;;;;;0.75;0.75;;;;;16.95;57.01;101114.09;5038568;28;45532;-58
2022/07/01 01:40:37;;;;;;;;;1.00;1.00;;;;;16.96;56.75;101109.63;5035106;28;45420;-61
2022/07/01 01:43:02;;;;;;;;;2.75;1.25;;;;;16.93;56.78;101107.13;5031984;28;45315;-58
2022/07/01 01:45:28;;;;;;;;;0.75;0.75;;;;;16.94;56.95;101112.34;5032520;28;45353;-58
2022/07/01 01:47:53;;;;;;;;;1.25;0.75;;;;;16.92;57.02;101106.28;5034990;28;45512;-58
2022/07/01 01:50:19;;;;;;;;;1.00;0.50;;;;;16.90;56.69;101108.16;5033908;28;45419;-58
2022/07/01 01:52:45;;;;;;;;;0.50;0.50;;;;;16.89;57.51;101111.72;5027559;28;46416;-59
2022/07/01 01:55:11;;;;;;;;;0.75;0.75;;;;;16.86;57.14;101111.88;5034729;28;45476;-59
2022/07/01 01:57:36;;;;;;;;;1.25;1.25;;;;;16.86;57.13;101114.53;5037783;28;45518;-59
2022/07/01 02:00:04;;;;;;;;;1.25;0.00;;;;;16.86;57.60;101117.16;5033192;28;45483;-59
2022/07/01 02:02:30;;;;;;;;;1.75;0.75;;;;;16.82;56.89;101120.84;5037960;28;46154;-59
2022/07/01 02:04:55;;;;;;;;;0.00;0.00;;;;;16.82;56.94;101129.63;5030112;28;45356;-58
2022/07/01 02:07:20;;;;;;;;;0.50;0.50;;;;;16.81;57.31;101125.28;5037304;28;46197;-58
2022/07/01 02:09:46;;;;;;;;;1.50;0.50;;;;;16.80;57.51;101133.28;5036664;28;46893;-58
2022/07/01 02:12:11;;;;;;;;;0.75;0.75;;;;;16.76;57.32;101129.06;5037210;28;46511;-58
2022/07/01 02:14:37;;;;;;;;;2.50;0.75;;;;;16.72;57.38;101127.50;5036153;28;62874;-59
2022/07/01 02:17:03;;;;;;;;;0.50;0.50;;;;;16.65;57.34;101124.28;5036354;28;63291;-58
2022/07/01 02:19:28;;;;;;;;;0.75;0.75;;;;;16.62;57.55;101130.53;5031087;28;45485;-57
2022/07/01 02:21:53;;;;;;;;;1.75;1.75;;;;;16.61;57.75;101127.97;5028218;28;69881;-57
2022/07/01 02:24:19;;;;;;;;;1.75;0.75;;;;;16.59;57.66;101130.72;5031299;28;55763;-57
2022/07/01 02:26:45;;;;;;;;;2.50;1.00;;;;;16.59;57.93;101138.63;5034392;28;45559;-57
2022/07/01 02:29:10;;;;;;;;;2.00;0.50;;;;;16.58;57.95;101138.69;5033405;28;45454;-58
2022/07/01 02:31:35;;;;;;;;;1.25;0.75;;;;;16.59;57.50;101138.63;5034622;28;66311;-58
2022/07/01 02:34:01;;;;;;;;;0.75;0.75;;;;;16.59;57.84;101133.34;5034258;28;47744;-57
2022/07/01 02:36:26;;;;;;;;;0.50;0.50;;;;;16.59;57.67;101145.69;5034100;28;45716;-58
2022/07/01 02:38:51;;;;;;;;;0.50;0.50;;;;;16.58;57.74;101147.47;5034289;28;45522;-58
2022/07/01 02:41:17;;;;;;;;;1.75;1.25;;;;;16.59;57.72;101143.03;5038583;28;50028;-58
2022/07/01 02:43:42;;;;;;;;;1.50;1.50;;;;;16.60;57.75;101142.13;5011663;28;61619;-58
2022/07/01 02:46:07;;;;;;;;;2.00;2.00;;;;;16.60;57.63;101139.47;5034813;28;56496;-58
2022/07/01 02:48:33;;;;;;;;;0.50;0.50;;;;;16.59;57.72;101149.19;5034802;28;56628;-58
2022/07/01 02:50:58;;;;;;;;;0.50;0.50;;;;;16.58;58.14;101151.91;5033549;28;45510;-57
2022/07/01 02:53:24;;;;;;;;;2.50;1.50;;;;;16.54;58.14;101151.19;5037185;28;45436;-58
2022/07/01 02:55:49;;;;;;;;;2.00;1.50;;;;;16.50;57.89;101147.84;5030140;28;68590;-58
2022/07/01 02:58:14;;;;;;;;;0.75;0.50;;;;;16.50;57.97;101160.16;5034155;28;45421;-59
2022/07/01 03:00:40;;;;;;;;;3.00;0.75;;;;;16.48;58.12;101154.09;5034068;28;65027;-58
2022/07/01 03:03:05;;;;;;;;;1.25;1.00;;;;;16.46;58.28;101156.81;5036548;28;45418;-58
2022/07/01 03:05:30;;;;;;;;;3.25;1.50;;;;;16.47;58.02;101160.31;5027958;28;59142;-58
2022/07/01 03:07:56;;;;;;;;;1.50;1.50;;;;;16.48;58.11;101157.63;5024908;28;45516;-58
2022/07/01 03:10:21;;;;;;;;;0.50;0.50;;;;;16.48;58.38;101157.63;5032937;28;45627;-58
2022/07/01 03:12:47;;;;;;;;;2.50;1.50;;;;;16.47;58.31;101155.88;5029722;28;45433;-58
2022/07/01 03:15:15;;;;;;;;;1.00;1.00;;;;;16.43;57.94;101156.97;5054939;28;45896;-58
2022/07/01 03:17:42;;;;;;;;;1.50;1.50;;;;;16.41;57.94;101164.06;5030154;28;45429;-57
2022/07/01 03:20:09;;;;;;;;;2.00;1.75;;;;;16.38;58.05;101156.31;5031870;28;46204;-57
2022/07/01 03:22:36;;;;;;;;;4.25;1.75;;;;;16.38;57.90;101155.44;5030738;28;45398;-57
2022/07/01 03:25:03;;;;;;;;;0.75;0.75;;;;;16.37;57.86;101159.00;5034692;28;45536;-57
2022/07/01 03:27:28;;;;;;;;;0.50;0.50;;;;;16.37;57.90;101159.00;5037033;28;45344;-57
2022/07/01 03:29:54;;;;;;;;;2.25;2.00;;;;;16.36;57.92;101163.44;5034889;28;45427;-57
2022/07/01 03:32:19;;;;;;;;;2.75;1.50;;;;;16.36;57.71;101170.50;5039036;28;45514;-57
2022/07/01 03:34:47;;;;;;;;;2.25;2.00;;;;;16.33;58.06;101171.50;5030739;28;45409;-57
2022/07/01 03:37:13;;;;;;;;;2.00;1.50;;;;;16.33;57.96;101174.13;5031061;28;45351;-57
2022/07/01 03:39:39;;;;;;;;;2.75;1.75;;;;;16.31;57.71;101168.91;5028197;28;46957;-58
2022/07/01 03:42:06;;;;;;;;;3.00;1.25;;;;;16.29;58.15;101178.69;5039103;28;45453;-57
2022/07/01 03:44:32;;;;;;;;;1.00;1.00;;;;;16.26;57.78;101178.81;5033569;28;45638;-57
2022/07/01 03:46:58;;;;;;;;;3.50;2.25;;;;;16.27;58.56;101183.19;5052323;28;45225;-58
2022/07/01 03:49:24;;;;;;;;;1.00;1.00;;;;;16.26;58.21;101185.91;5037252;28;54491;-58
2022/07/01 03:51:49;;;;;;;;;2.00;1.50;;;;;16.20;58.21;101194.06;5030774;28;45869;-58
2022/07/01 03:54:32;;;;;;;;;3.00;2.00;;;;;16.16;58.06;101192.50;5039330;28;45404;-58
2022/07/01 03:56:59;;;;;;;;;2.50;2.00;;;;;16.10;58.54;101194.47;5038478;28;45603;-58
2022/07/01 03:59:25;;;;;;;;;5.25;2.00;;;;;16.06;58.30;101190.25;5035799;28;46243;-57
2022/07/01 04:01:51;;;;;;;;;3.00;2.25;;;;;16.01;58.47;101188.75;5043869;28;45394;-58
2022/07/01 04:04:17;;;;;;;;;1.00;1.00;;;;;15.98;58.56;101194.16;5039587;28;45529;-58
2022/07/01 04:06:43;;;;;;;;;3.25;1.75;;;;;15.90;58.55;101199.72;5037903;28;45423;-58
2022/07/01 04:09:08;;;;;;;;;3.25;1.75;;;;;15.85;58.51;101189.38;5032065;28;75997;-58
2022/07/01 04:11:33;;;;;;;;;2.25;2.00;;;;;15.84;58.03;101200.84;5037336;28;70286;-58
2022/07/01 04:13:59;;;;;;;;;2.00;2.00;;;;;15.81;58.68;101200.13;5033838;28;45808;-58
2022/07/01 04:16:25;;;;;;;;;2.00;1.50;;;;;15.79;59.26;101199.31;5039602;28;50674;-57
2022/07/01 04:18:51;;;;;;;;;3.25;2.00;;;;;15.72;59.30;101207.47;5014231;28;48251;-58
2022/07/01 04:24:00;;;;;;;;;2.00;2.00;;;;;15.61;58.49;101204.41;5035153;28;45260;-57
2022/07/01 04:26:26;;;;;;;;;3.00;1.25;;;;;15.56;58.91;101209.88;5027648;28;57953;-58
2022/07/01 04:28:52;;;;;;;;;3.25;2.00;;;;;15.53;59.38;101210.00;5031685;28;73810;-58
2022/07/01 04:31:18;;;;;;;;;1.00;1.00;;;;;15.52;58.78;101210.06;5034592;28;45476;-58
2022/07/01 04:33:44;;;;;;;;;2.00;2.00;;;;;15.58;59.20;101217.69;5039027;28;45519;-58
2022/07/01 04:36:09;;;;;;;;;3.00;2.00;;;;;15.61;58.87;101224.66;5033698;28;45690;-57
2022/07/01 04:38:34;;;;;;;;;1.75;1.25;;;;;15.63;59.01;101214.88;5035884;28;69754;-57
2022/07/01 04:43:45;;;;;;;;;2.00;2.00;;;;;15.76;58.81;101210.88;5024436;28;46092;-58
2022/07/01 04:46:11;;;;;;;;;2.00;2.00;;;;;15.80;58.63;101215.09;5036719;28;66659;-58
2022/07/01 04:48:36;;;;;;;;;2.25;2.25;;;;;15.85;58.36;101222.84;5040286;28;58761;-57
2022/07/01 04:51:01;;;;;;;;;2.00;2.00;;;;;15.88;58.36;101225.31;5039652;28;56136;-58
2022/07/01 04:53:27;;;;;;;;;4.00;3.50;;;;;15.91;58.33;101233.97;5027081;28;63468;-58
2022/07/01 04:55:52;;;;;;;;;1.50;1.00;;;;;15.96;58.53;101230.31;5044295;28;49002;-57
2022/07/01 04:58:17;;;;;;;;;3.00;1.25;;;;;16.00;58.21;101231.88;5027389;28;67541;-58
2022/07/01 05:00:42;;;;;;;;;2.75;2.00;;;;;16.05;57.80;101237.84;5038501;28;68028;-58
2022/07/01 05:03:08;;;;;;;;;3.00;2.00;;;;;16.09;57.77;101235.00;5036746;28;45392;-58
2022/07/01 05:05:33;;;;;;;;;2.00;2.00;;;;;16.14;57.98;101234.81;5028908;28;45716;-58
2022/07/01 05:07:59;;;;;;;;;5.75;1.00;;;;;16.17;57.61;101241.75;5053830;28;65782;-58
2022/07/01 05:10:24;;;;;;;;;1.75;1.00;;;;;16.14;57.49;101250.66;5036329;28;64261;-58
2022/07/01 05:12:49;;;;;;;;;3.75;1.75;;;;;16.07;57.32;101243.91;5030088;28;59440;-57
2022/07/01 05:15:15;;;;;;;;;1.00;1.00;;;;;16.05;57.28;101246.59;5036666;28;48419;-58
2022/07/01 05:23:08;;;;;;;;;3.00;2.25;;;;;16.16;57.36;101240.88;5036383;28;45485;-58
2022/07/01 05:25:33;;;;;;;;;3.50;3.25;;;;;16.18;57.32;101246.09;5026608;28;45285;-57
2022/07/01 05:27:58;;;;;;;;;1.50;1.50;;;;;16.20;57.37;101246.88;5027118;28;46231;-57
2022/07/01 05:30:24;;;;;;;;;4.75;2.25;;;;;16.24;57.23;101246.69;5035932;28;73115;-57
2022/07/01 05:32:49;;;;;;;;;6.75;1.25;;;;;16.25;56.74;101245.75;5026713;28;69396;-57
2022/07/01 05:35:14;;;;;;;;;1.25;1.00;;;;;16.27;56.66;101250.97;5033011;28;69851;-57
2022/07/01 05:37:40;;;;;;;;;3.50;2.00;;;;;16.25;57.00;101248.41;5033169;28;45447;-57
2022/07/01 05:40:06;;;;;;;;;4.75;2.00;;;;;16.30;56.69;101242.94;5040184;28;45438;-57
2022/07/01 05:42:32;;;;;;;;;2.00;2.00;;;;;16.35;56.44;101245.38;5031013;28;45262;-57
2022/07/01 05:44:57;;;;;;;;;1.75;1.25;;;;;16.40;56.21;101251.34;5033151;28;70957;-57
2022/07/01 05:47:22;;;;;;;;;1.75;1.50;;;;;16.43;56.26;101259.09;5033434;28;71060;-57
2022/07/01 05:49:48;;;;;;;;;2.00;2.00;;;;;16.48;56.07;101251.84;5038619;28;73023;-58
2022/07/01 05:52:13;;;;;;;;;3.00;2.00;;;;;16.55;55.70;101250.66;5032883;28;64152;-58
2022/07/01 05:54:38;;;;;;;;;3.50;2.00;;;;;16.60;55.59;101256.59;5034293;28;45574;-59
2022/07/01 05:57:04;;;;;;;;;2.00;0.00;;;;;16.63;55.32;101253.81;5035878;28;46421;-58
2022/07/01 05:59:29;;;;;;;;;7.00;3.00;;;;;16.63;55.47;101261.75;5032109;28;45300;-58
2022/07/01 06:01:55;;;;;;;;;3.75;1.00;;;;;16.67;55.09;101257.19;5029738;28;68309;-58
2022/07/01 06:04:20;;;;;;;;;2.50;2.00;;;;;16.72;55.28;101265.78;5034233;28;45506;-58
2022/07/01 06:06:46;;;;;;;;;4.00;2.00;;;;;16.77;55.31;101261.16;5035528;28;73529;-58
2022/07/01 06:09:11;;;;;;;;;1.50;1.00;;;;;16.78;54.98;101269.94;5031303;28;45326;-56
2022/07/01 06:11:37;;;;;;;;;2.50;1.00;;;;;16.84;54.35;101264.41;5034015;28;45473;-58
2022/07/01 06:14:02;;;;;;;;;2.75;2.75;;;;;16.88;54.65;101266.00;5034398;28;73081;-57
2022/07/01 06:16:27;;;;;;;;;1.50;1.50;;;;;16.93;54.31;101269.28;5038195;28;53723;-58
2022/07/01 06:18:53;;;;;;;;;1.50;0.75;;;;;16.92;53.90;101264.91;5033035;28;67707;-58
2022/07/01 06:21:18;;;;;;;;;2.75;2.00;;;;;16.95;53.96;101274.50;5035014;28;57559;-59
2022/07/01 06:23:45;;;;;;;;;3.00;1.00;;;;;16.95;53.30;101280.66;5033267;28;45585;-58
2022/07/01 06:26:11;;;;;;;;;2.75;1.00;;;;;16.97;52.99;101277.94;5033204;28;46106;-59
2022/07/01 06:28:36;;;;;;;;;2.25;0.50;;;;;16.97;53.51;101281.44;5029908;28;46214;-61
2022/07/01 06:31:01;;;;;;;;;1.75;1.50;;;;;16.95;53.12;101278.00;5027571;28;47164;-58
2022/07/01 06:33:29;;;;;;;;;2.00;0.50;;;;;16.95;53.41;101283.28;5040448;28;45612;-54
2022/07/01 06:35:55;;;;;;;;;1.00;1.00;;;;;16.95;53.38;101275.34;5030307;28;47494;-53
2022/07/01 06:38:20;;;;;;;;;0.75;0.75;;;;;16.95;53.22;101279.78;5027072;28;45426;-54
2022/07/01 06:41:26;;;;;;;;;3.75;1.25;;;;;16.98;53.26;101282.28;5032790;28;61561;-53
2022/07/01 06:43:30;;;;;;;;;3.25;0.25;;;;;17.00;53.29;101283.09;5032272;28;45560;-47
2022/07/01 06:45:56;;;;;;;;;0.00;0.00;;;;;17.03;53.04;101290.88;5034979;28;73121;-53
2022/07/01 06:48:21;;;;;;;;;0.50;0.50;;;;;17.04;52.97;101284.66;5025753;28;62230;-49
2022/07/01 06:50:46;;;;;;;;;1.25;0.50;;;;;17.08;53.14;101288.88;5038641;28;48982;-51
2022/07/01 06:53:12;;;;;;;;;1.50;0.00;;;;;17.11;52.39;101295.81;5032872;28;64387;-54
2022/07/01 06:55:37;;;;;;;;;1.00;0.00;;;;;17.10;52.49;101288.81;5039079;28;75668;-52
2022/07/01 06:58:04;;;;;;;;;0.50;0.50;;;;;17.12;52.67;101289.59;5034181;28;45379;-51
2022/07/01 07:00:29;;;;;;;;;2.00;0.00;;;;;17.17;52.84;101290.25;5031702;28;45571;-50
2022/07/01 07:02:54;;;;;;;;;1.25;0.50;;;;;17.22;52.50;101291.75;5026845;28;45726;-48
2022/07/01 07:05:20;;;;;;;;;1.50;1.50;;;;;17.29;52.46;101297.63;5037118;28;65146;-49
2022/07/01 07:07:45;;;;;;;;;1.00;0.00;;;;;17.35;52.08;101292.06;5046803;28;63595;-47
2022/07/01 07:10:10;;;;;;;;;1.50;0.75;;;;;17.41;51.55;101297.03;5034167;28;45320;-51
2022/07/01 07:12:36;;;;;;;;;2.75;0.75;;;;;17.49;51.94;101290.53;5032015;28;56223;-50
2022/07/01 07:15:01;;;;;;;;;5.00;1.50;;;;;17.57;51.17;101294.53;5025464;28;45470;-51
2022/07/01 07:17:27;;;;;;;;;2.00;0.00;;;;;17.62;51.01;101295.19;5035800;28;45325;-49
2022/07/01 07:19:53;;;;;;;;;2.00;0.25;;;;;17.71;50.38;101290.38;5032102;28;45737;-50
2022/07/01 07:22:18;;;;;;;;;1.25;1.25;;;;;17.77;51.50;101298.88;5026552;28;45332;-47
2022/07/01 07:24:44;;;;;;;;;2.50;0.00;;;;;17.81;50.83;101294.28;5027575;28;65701;-52
2022/07/01 07:27:09;;;;;;;;;2.00;0.00;;;;;17.82;50.63;101290.72;5014133;28;55989;-48
2022/07/01 07:29:34;;;;;;;;;2.75;1.00;;;;;17.86;50.81;101294.09;5035294;28;45308;-53
2022/07/01 07:32:00;;;;;;;;;3.25;0.75;;;;;17.90;50.48;101285.06;5034067;28;66569;-47
2022/07/01 07:34:25;;;;;;;;;1.50;1.25;;;;;17.96;50.72;101292.72;5036717;28;46251;-51
2022/07/01 07:36:50;;;;;;;;;0.00;0.00;;;;;18.00;50.52;101289.00;5032963;28;56314;-49
2022/07/01 07:39:16;;;;;;;;;2.00;1.00;;;;;18.05;49.79;101292.28;5035265;28;55698;-50
2022/07/01 07:41:41;;;;;;;;;0.75;0.25;;;;;18.13;50.29;101289.22;5037620;28;58112;-52
2022/07/01 07:44:06;;;;;;;;;1.00;0.75;;;;;18.20;49.60;101285.34;5035873;28;45922;-51
2022/07/01 07:46:32;;;;;;;;;4.00;1.00;;;;;18.31;49.55;101285.69;5025190;28;54678;-48
2022/07/01 07:48:57;;;;;;;;;5.00;1.00;;;;;18.37;49.16;101282.69;5027112;28;62120;-49
2022/07/01 07:51:22;;;;;;;;;3.25;1.00;;;;;18.47;49.13;101291.06;5028859;28;45268;-52
2022/07/01 07:53:48;;;;;;;;;1.50;0.50;;;;;18.57;48.86;101288.78;5027244;28;45557;-50
2022/07/01 07:56:13;;;;;;;;;3.00;1.00;;;;;18.65;48.86;101291.88;5035998;28;45366;-48
2022/07/01 07:58:41;;;;;;;;;1.00;1.00;;;;;18.68;48.51;101291.75;5033658;28;58923;-47
2022/07/01 08:01:07;;;;;;;;;1.00;0.00;;;;;18.74;47.74;101296.72;5028605;28;45491;-47
2022/07/01 08:03:34;;;;;;;;;1.50;0.00;;;;;18.77;46.19;101296.56;5034508;28;68014;-52
2022/07/01 08:05:59;;;;;;;;;1.00;0.00;;;;;18.78;47.02;101294.75;5031603;28;45414;-48
2022/07/01 08:08:27;;;;;;;;;0.50;0.50;;;;;18.82;46.94;101296.31;5032193;28;45449;-48
2022/07/01 08:10:52;;;;;;;;;1.00;0.50;;;;;18.86;46.10;101291.75;5028608;28;45398;-49
2022/07/01 08:13:18;;;;;;;;;2.00;0.00;;;;;18.92;45.83;101302.88;5022494;28;45687;-47
2022/07/01 08:15:43;;;;;;;;;1.25;0.00;;;;;18.97;46.31;101292.03;5036485;28;45391;-47
2022/07/01 08:18:09;;;;;;;;;1.00;1.00;;;;;19.05;45.94;101296.91;5023272;28;45795;-48
2022/07/01 08:20:34;;;;;;;;;0.00;0.00;;;;;19.09;45.03;101298.47;5028083;28;45403;-47
2022/07/01 08:22:59;;;;;;;;;2.00;1.00;;;;;19.10;46.08;101300.19;5025318;28;61967;-50
2022/07/01 08:25:25;;;;;;;;;1.75;1.00;;;;;19.14;44.91;101313.22;5032859;28;45377;-52
2022/07/01 08:27:50;;;;;;;;;2.00;0.00;;;;;19.19;44.86;101312.94;5033295;28;45453;-50
2022/07/01 08:30:15;;;;;;;;;2.00;0.25;;;;;19.21;43.58;101310.22;5035059;28;45324;-51
2022/07/01 08:32:41;;;;;;;;;0.50;0.00;;;;;19.27;43.98;101310.75;5035748;28;46849;-53
2022/07/01 08:35:06;;;;;;;;;1.00;0.00;;;;;19.35;44.98;101312.97;5019370;28;57618;-50
2022/07/01 08:37:32;;;;;;;;;0.00;0.00;;;;;19.38;44.15;101312.81;5037320;28;45310;-49
2022/07/01 08:39:59;;;;;;;;;0.00;0.00;;;;;19.40;42.13;101315.38;5034709;28;45549;-50
2022/07/01 08:42:24;;;;;;;;;1.00;0.00;;;;;19.43;43.61;101316.06;5039782;28;45423;-46
2022/07/01 08:44:49;;;;;;;;;2.00;1.00;;;;;19.49;43.45;101321.03;5035831;28;45240;-49
2022/07/01 08:47:15;;;;;;;;;0.25;0.25;;;;;19.54;42.46;101318.13;5034803;28;45372;-50
2022/07/01 08:49:41;;;;;;;;;0.00;0.00;;;;;19.61;42.92;101319.50;5038840;28;45447;-49
2022/07/01 08:52:09;;;;;;;;;0.75;0.75;;;;;19.65;42.76;101321.03;5030819;28;45312;-50
2022/07/01 08:54:34;;;;;;;;;0.00;0.00;;;;;19.66;42.42;101324.56;5037195;28;45428;-49
2022/07/01 08:57:00;;;;;;;;;0.00;0.00;;;;;19.73;42.70;101325.94;5038932;28;45380;-52
2022/07/01 08:59:26;;;;;;;;;1.00;1.00;;;;;19.80;42.17;101326.47;5036234;28;59978;-49
2022/07/01 09:02:06;;;;;;;;;1.00;0.25;;;;;19.83;42.78;101327.16;5039710;28;45429;-48
2022/07/01 09:04:33;;;;;;;;;0.75;0.50;;;;;19.93;42.59;101327.47;5032931;28;45351;-51
2022/07/01 09:07:16;;;;;;;;;0.00;0.00;;;;;19.94;40.76;101328.31;5038309;28;45346;-47
2022/07/01 09:09:42;;;;;;;;;0.50;0.00;;;;;19.88;41.57;101346.34;5030830;28;62629;-50
2022/07/01 09:12:08;;;;;;;;;8.50;5.00;;;;;19.88;41.16;101335.72;5040042;28;46296;-50
2022/07/01 09:14:34;;;;;;;;;2.00;1.00;;;;;19.95;41.53;101325.59;5034512;28;45348;-47
2022/07/01 09:17:02;;;;;;;;;1.00;1.00;;;;;20.10;40.92;101329.19;5041438;28;45389;-48
2022/07/01 09:19:30;;;;;;;;;0.75;0.75;;;;;20.18;41.16;101328.72;5031266;28;45718;-48
2022/07/01 09:22:00;;;;;;;;;0.00;0.00;;;;;20.22;40.53;101335.56;5039906;28;45392;-48
2022/07/01 09:24:36;;;;;;;;;1.75;0.75;;;;;20.25;41.30;101336.25;5030959;28;45391;-51
2022/07/01 09:27:13;;;;;;;;;3.00;1.25;;;;;20.33;41.14;101340.25;5033871;28;45265;-48
2022/07/01 09:29:41;;;;;;;;;1.00;0.00;;;;;20.35;40.96;101341.91;5035456;28;45423;-48
2022/07/01 09:32:09;;;;;;;;;2.00;0.00;;;;;20.35;40.74;101343.72;5035091;28;46054;-51
2022/07/01 09:34:46;;;;;;;;;1.00;1.00;;;;;20.32;41.67;101344.72;5037606;28;45300;-48
2022/07/01 09:37:13;;;;;;;;;0.00;0.00;;;;;20.44;41.02;101352.00;5034689;28;45211;-48
2022/07/01 09:39:44;;;;;;;;;3.50;1.00;;;;;20.59;40.80;101347.59;5035402;28;46656;-47
2022/07/01 09:42:09;;;;;;;;;1.75;1.00;;;;;20.82;41.12;101340.03;5035800;28;45788;-49
2022/07/01 09:44:35;;;;;;;;;3.00;1.00;;;;;21.30;40.64;101347.78;5018459;28;45473;-51
2022/07/01 09:47:01;;;;;;;;;2.00;0.00;;;;;21.40;40.31;101344.44;5035238;28;45297;-46
2022/07/01 09:49:27;;;;;;;;;2.25;2.25;;;;;21.34;40.23;101344.81;5037572;28;45481;-50
2022/07/01 09:51:53;;;;;;;;;4.00;1.00;;;;;21.43;39.40;101341.59;5034725;28;46936;-51
2022/07/01 09:54:19;;;;;;;;;1.50;1.50;;;;;22.43;39.82;101342.28;5027474;28;45583;-48
2022/07/01 09:56:44;;;;;;;;;0.75;0.00;;;;;23.25;39.56;101342.91;5031339;28;45389;-53
2022/07/01 09:59:10;;;;;;;;;5.50;0.25;;;;;23.24;38.31;101341.16;5036173;28;45505;-52
2022/07/01 10:01:38;;;;;;;;;1.50;1.50;;;;;23.02;36.84;101339.16;5035784;28;54098;-50
2022/07/01 10:04:07;;;;;;;;;0.50;0.25;;;;;23.39;37.71;101351.72;5031956;28;45331;-48
2022/07/01 10:06:41;;;;;;;;;5.50;3.00;;;;;25.11;37.52;101349.59;5038797;28;45292;-53
2022/07/01 10:09:31;;;;;;;;;1.25;1.25;;;;;27.40;34.96;101350.34;5049301;28;45533;-53
2022/07/01 10:12:03;;;;;;;;;1.00;0.75;;;;;29.20;31.73;101343.69;5029302;28;45679;-47
2022/07/01 10:14:29;;;;;;;;;0.75;0.00;;;;;29.52;29.82;101349.50;5032628;28;45758;-48
2022/07/01 10:16:55;;;;;;;;;3.00;2.00;;;;;28.75;30.13;101343.38;5030668;28;45299;-52
2022/07/01 10:19:20;;;;;;;;;1.00;0.00;;;;;28.10;31.18;101350.34;5033236;28;64490;-50
2022/07/01 10:21:45;;;;;;;;;0.00;0.00;;;;;27.45;27.79;101353.47;5039157;28;45438;-51
2022/07/01 10:24:20;;;;;;;;;0.50;0.00;;;;;27.54;32.08;101352.63;5032229;28;45469;-52
2022/07/01 10:26:46;;;;;;;;;2.00;0.00;;;;;27.51;29.89;101349.38;5031258;28;45415;-52
2022/07/01 10:29:31;;;;;;;;;0.00;0.00;;;;;26.90;31.43;101353.75;5014639;28;45455;-50
2022/07/01 10:32:08;;;;;;;;;1.00;0.00;;;;;26.20;31.23;101353.38;5032590;28;45384;-50
2022/07/01 10:34:35;;;;;;;;;4.00;1.00;;;;;25.53;32.38;101340.97;5035458;28;45415;-53
2022/07/01 10:37:06;;;;;;;;;0.00;0.00;;;;;25.04;32.76;101350.19;5032493;28;45422;-51
2022/07/01 10:39:54;;;;;;;;;0.25;0.25;;;;;24.62;33.34;101354.25;5035255;28;45565;-52
2022/07/01 10:42:19;;;;;;;;;0.25;0.00;;;;;24.24;32.36;101346.44;5034174;28;45287;-45
2022/07/01 10:45:01;;;;;;;;;1.00;1.00;;;;;23.89;34.63;101355.28;5034893;28;49868;-45
2022/07/01 10:47:26;;;;;;;;;2.25;2.00;;;;;24.79;34.32;101344.09;5030158;28;45464;-48
2022/07/01 10:49:55;;;;;;;;;3.25;1.00;;;;;26.68;32.36;101344.00;5029249;28;63277;-48
2022/07/01 10:52:20;;;;;;;;;0.00;0.00;;;;;28.58;31.43;101349.53;5024648;28;45394;-49
2022/07/01 10:54:48;;;;;;;;;0.75;0.00;;;;;30.23;29.74;101339.78;5027277;28;45299;-49
2022/07/01 10:57:16;;;;;;;;;0.75;0.00;;;;;31.76;28.98;101343.72;5037267;28;45393;-49
2022/07/01 10:59:51;;;;;;;;;0.00;0.00;;;;;32.36;27.93;101336.38;5030356;28;45430;-47
2022/07/01 11:02:24;;;;;;;;;0.00;0.00;;;;;31.93;27.01;101341.06;5029387;28;45496;-49
2022/07/01 11:04:51;;;;;;;;;0.00;0.00;;;;;31.14;25.63;101343.97;5028788;28;45486;-48
2022/07/01 11:07:16;;;;;;;;;2.00;0.00;;;;;30.19;26.31;101340.22;5037347;28;45362;-47
2022/07/01 11:09:42;;;;;;;;;4.00;0.50;;;;;29.38;27.20;101347.28;5030437;28;45299;-49
2022/07/01 11:12:08;;;;;;;;;3.25;2.50;;;;;28.66;27.40;101352.31;5037416;28;60715;-47
2022/07/01 11:14:35;;;;;;;;;6.00;2.75;;;;;28.16;28.01;101350.63;5031897;28;45718;-49
2022/07/01 11:17:02;;;;;;;;;2.50;0.25;;;;;27.74;26.82;101352.69;5038790;28;45348;-52
2022/07/01 11:19:27;;;;;;;;;3.75;2.00;;;;;27.98;29.59;101350.50;5031987;28;45162;-51
2022/07/01 11:21:54;;;;;;;;;10.25;9.50;;;;;29.35;28.75;101329.56;5036409;28;72046;-49
2022/07/01 11:24:20;;;;;;;;;2.50;0.00;;;;;31.09;28.35;101340.91;5032212;28;45401;-50
2022/07/01 11:26:46;;;;;;;;;1.00;1.00;;;;;32.35;26.72;101343.66;5036951;28;45634;-52
2022/07/01 11:29:23;;;;;;;;;2.00;0.25;;;;;33.16;25.11;101334.72;5032623;28;45348;-49
2022/07/01 11:31:49;;;;;;;;;4.50;4.00;;;;;34.08;24.36;101332.16;5032031;28;46456;-48